Time;durP1;ratioP1;P1;durP2;ratioP2;P2;SDS_P1;SDS_P2;PMS_P1;PMS_P2;Temp;Humidity;BMP_temperature;BMP_pressure;BME280_temperature;BME280_humidity;BME280_pressure;Samples;Min_cycle;Max_cycle;Signal;HPM_P1;HPM_P2
2022/04/13 00:00:15;;;;;;;11.88;8.18;;;14.10;99.90;;;;;;5078862;28;20044;-76
2022/04/13 00:02:42;;;;;;;14.37;8.43;;;14.40;99.90;;;;;;5079909;28;20066;-76
2022/04/13 00:05:09;;;;;;;13.02;7.70;;;14.20;99.90;;;;;;5096379;28;20557;-76
2022/04/13 00:07:35;;;;;;;14.80;9.45;;;14.10;99.90;;;;;;5063153;28;20432;-76
2022/04/13 00:10:01;;;;;;;17.60;9.27;;;14.10;99.90;;;;;;5096138;28;20046;-76
2022/04/13 00:12:26;;;;;;;15.05;8.52;;;14.00;99.90;;;;;;5096540;28;20050;-76
2022/04/13 00:14:52;;;;;;;15.23;8.52;;;14.00;99.90;;;;;;5096825;28;20462;-75
2022/04/13 00:17:17;;;;;;;12.43;7.97;;;14.20;99.90;;;;;;5114776;28;20035;-75
2022/04/13 00:19:43;;;;;;;13.85;9.13;;;14.10;99.90;;;;;;5095469;28;20122;-76
2022/04/13 00:22:09;;;;;;;15.45;9.10;;;13.80;99.90;;;;;;5096395;28;20046;-76
2022/04/13 00:24:34;;;;;;;17.05;10.38;;;13.90;99.90;;;;;;5114831;28;20072;-75
2022/04/13 00:27:00;;;;;;;15.30;8.60;;;14.00;99.90;;;;;;5114355;28;20044;-76
2022/04/13 00:29:26;;;;;;;16.38;9.73;;;13.90;99.90;;;;;;5095267;28;20631;-75
2022/04/13 00:31:52;;;;;;;15.43;9.65;;;13.90;99.90;;;;;;5114516;28;20035;-75
2022/04/13 00:34:18;;;;;;;18.42;10.85;;;13.70;99.90;;;;;;5079043;28;20081;-76
2022/04/13 00:36:43;;;;;;;17.15;10.68;;;13.80;99.90;;;;;;5096104;28;20039;-75
2022/04/13 00:39:09;;;;;;;20.77;11.00;;;13.80;99.90;;;;;;5078114;28;20092;-76
2022/04/13 00:41:34;;;;;;;16.60;9.88;;;13.90;99.90;;;;;;5095768;28;20047;-76
2022/04/13 00:44:03;;;;;;;19.55;11.77;;;13.80;99.90;;;;;;5113895;28;20039;-76
2022/04/13 00:46:29;;;;;;;16.85;10.43;;;13.70;99.90;;;;;;5095991;28;20043;-76
2022/04/13 00:48:55;;;;;;;13.60;10.38;;;;;;;;;;5095261;28;20028;-75
2022/04/13 00:51:21;;;;;;;16.23;10.50;;;13.80;99.90;;;;;;5095632;28;20092;-75
2022/04/13 00:53:47;;;;;;;17.33;11.60;;;13.50;99.90;;;;;;5095490;28;20492;-75
2022/04/13 00:56:15;;;;;;;20.83;12.63;;;13.60;99.90;;;;;;5113741;28;20409;-75
2022/04/13 00:58:43;;;;;;;17.83;11.27;;;13.60;99.90;;;;;;5095028;28;20039;-75
2022/04/13 01:01:09;;;;;;;18.40;10.80;;;13.50;99.90;;;;;;5094584;28;20418;-76
2022/04/13 01:03:36;;;;;;;19.10;11.40;;;13.50;99.90;;;;;;5078528;28;20043;-75
2022/04/13 01:06:04;;;;;;;23.92;12.55;;;13.40;99.90;;;;;;5068183;22;20058;-68
2022/04/13 01:08:31;;;;;;;19.80;11.95;;;13.80;99.90;;;;;;5072848;28;20041;-68
2022/04/13 01:10:58;;;;;;;22.98;12.68;;;13.40;99.90;;;;;;5054133;28;20052;-68
2022/04/13 01:13:23;;;;;;;23.67;12.63;;;13.20;99.90;;;;;;5054916;28;20032;-69
2022/04/13 01:15:49;;;;;;;20.92;12.82;;;13.30;99.90;;;;;;5072696;28;20426;-68
2022/04/13 01:18:18;;;;;;;20.77;13.57;;;13.40;99.90;;;;;;5056817;28;20032;-69
2022/04/13 01:20:56;;;;;;;24.98;13.00;;;13.30;99.90;;;;;;5074192;28;20098;-68
2022/04/13 01:23:23;;;;;;;23.55;13.77;;;13.20;99.90;;;;;;5073688;28;20036;-68
2022/04/13 01:25:54;;;;;;;20.33;12.20;;;13.40;99.90;;;;;;5058565;28;20044;-68
2022/04/13 01:28:21;;;;;;;24.60;13.38;;;13.40;99.90;;;;;;5083422;28;20080;-69
2022/04/13 01:30:46;;;;;;;24.38;13.63;;;13.20;99.90;;;;;;5061955;28;20423;-68
2022/04/13 01:33:12;;;;;;;24.70;14.73;;;13.30;99.90;;;;;;5075524;28;20166;-68
2022/04/13 01:35:38;;;;;;;24.50;14.32;;;13.30;99.90;;;;;;5054906;28;20044;-69
2022/04/13 01:38:05;;;;;;;23.95;13.73;;;13.20;99.90;;;;;;5039607;28;20044;-68
2022/04/13 01:40:30;;;;;;;23.55;14.05;;;13.20;99.90;;;;;;5054761;28;20040;-68
2022/04/13 01:42:56;;;;;;;18.08;13.07;;;13.20;99.90;;;;;;5072458;28;20076;-68
2022/04/13 01:45:21;;;;;;;22.65;12.52;;;13.20;99.90;;;;;;5072264;28;20064;-68
2022/04/13 01:47:51;;;;;;;24.45;14.00;;;13.20;99.90;;;;;;5054179;28;20086;-68
2022/04/13 01:50:18;;;;;;;23.45;14.00;;;13.20;99.90;;;;;;5071500;28;20068;-69
2022/04/13 01:52:44;;;;;;;24.77;13.90;;;13.20;99.90;;;;;;5053909;28;20052;-68
2022/04/13 01:55:10;;;;;;;25.85;14.38;;;13.20;99.90;;;;;;5053694;28;20178;-69
2022/04/13 01:57:37;;;;;;;24.02;13.50;;;13.40;99.90;;;;;;5071865;28;20506;-69
2022/04/13 02:00:04;;;;;;;25.23;14.60;;;13.00;99.90;;;;;;5036500;28;20032;-68
2022/04/13 02:02:30;;;;;;;21.77;14.25;;;13.30;99.90;;;;;;5071580;28;20094;-68
2022/04/13 02:04:55;;;;;;;21.60;13.23;;;13.20;99.90;;;;;;5053528;28;20032;-68
2022/04/13 02:07:21;;;;;;;20.73;12.68;;;13.10;99.90;;;;;;5037126;28;20036;-68
2022/04/13 02:09:47;;;;;;;20.98;12.60;;;13.20;99.90;;;;;;5070279;28;20452;-68
2022/04/13 02:12:12;;;;;;;24.45;14.43;;;13.10;99.90;;;;;;5071659;28;20119;-68
2022/04/13 02:14:38;;;;;;;25.45;13.93;;;13.20;99.90;;;;;;5071470;28;20502;-68
2022/04/13 02:17:03;;;;;;;22.48;14.43;;;13.10;99.90;;;;;;5053480;28;20055;-67
2022/04/13 02:19:29;;;;;;;22.98;13.75;;;13.20;99.90;;;;;;5070579;28;20037;-68
2022/04/13 02:21:54;;;;;;;24.70;14.38;;;13.10;99.90;;;;;;5053538;28;20040;-68
2022/04/13 02:24:20;;;;;;;24.40;15.02;;;13.10;99.90;;;;;;5071503;28;20044;-69
2022/04/13 02:26:45;;;;;;;22.17;14.82;;;13.30;99.90;;;;;;5071457;28;20028;-68
2022/04/13 02:29:11;;;;;;;21.50;12.98;;;13.30;99.90;;;;;;5052545;28;20600;-68
2022/04/13 02:31:37;;;;;;;23.33;13.57;;;13.20;99.90;;;;;;5053421;28;20032;-68
2022/04/13 02:34:04;;;;;;;26.17;13.13;;;13.00;99.90;;;;;;5053485;28;20044;-68
2022/04/13 02:36:30;;;;;;;25.63;14.48;;;13.00;99.90;;;;;;5053418;28;20049;-69
2022/04/13 02:38:56;;;;;;;23.10;13.65;;;13.00;99.90;;;;;;5052843;28;20070;-67
2022/04/13 02:41:22;;;;;;;25.50;15.73;;;13.00;99.90;;;;;;5053153;28;20068;-68
2022/04/13 02:43:47;;;;;;;23.48;14.52;;;12.90;99.90;;;;;;5053653;28;20033;-68
2022/04/13 02:46:13;;;;;;;24.85;14.13;;;13.00;99.90;;;;;;5071124;28;20037;-68
2022/04/13 02:48:38;;;;;;;26.50;14.65;;;12.80;99.90;;;;;;5071400;28;20044;-68
2022/04/13 02:51:04;;;;;;;22.13;13.07;;;12.90;99.90;;;;;;5052673;28;20041;-68
2022/04/13 02:53:30;;;;;;;24.42;14.43;;;12.80;99.90;;;;;;5071457;28;20071;-68
2022/04/13 02:55:56;;;;;;;29.65;14.05;;;12.70;99.90;;;;;;5071114;28;20410;-68
2022/04/13 02:58:21;;;;;;;23.45;13.32;;;12.80;99.90;;;;;;5036737;28;20492;-68
2022/04/13 03:00:47;;;;;;;25.67;14.23;;;12.90;99.90;;;;;;5052120;28;20128;-67
2022/04/13 03:03:13;;;;;;;24.48;15.68;;;12.90;99.90;;;;;;5053384;28;20068;-68
2022/04/13 03:05:39;;;;;;;27.42;14.63;;;12.80;99.90;;;;;;5052830;28;20124;-68
2022/04/13 03:08:06;;;;;;;23.63;14.10;;;12.60;99.90;;;;;;5053271;28;20063;-68
2022/04/13 03:10:31;;;;;;;25.30;14.20;;;12.70;99.90;;;;;;5070113;28;20549;-68
2022/04/13 03:12:57;;;;;;;23.50;15.10;;;12.50;99.90;;;;;;5036418;28;20128;-68
2022/04/13 03:15:23;;;;;;;24.42;15.05;;;12.50;99.90;;;;;;5070781;28;20046;-68
2022/04/13 03:17:50;;;;;;;25.02;13.95;;;12.40;99.90;;;;;;5053190;28;20037;-68
2022/04/13 03:20:17;;;;;;;27.80;16.50;;;12.60;99.90;;;;;;5052064;28;20040;-68
2022/04/13 03:22:42;;;;;;;22.33;13.57;;;12.50;99.90;;;;;;5074585;28;20039;-68
2022/04/13 03:25:08;;;;;;;26.13;15.52;;;12.50;99.90;;;;;;5056655;28;20032;-68
2022/04/13 03:27:33;;;;;;;27.63;15.50;;;12.30;99.90;;;;;;5074803;28;20131;-68
2022/04/13 03:29:59;;;;;;;26.65;15.85;;;;;;;;;;5075070;28;20043;-68
2022/04/13 03:32:25;;;;;;;27.08;15.90;;;12.20;99.90;;;;;;5075659;28;20401;-68
2022/04/13 03:34:50;;;;;;;30.92;17.90;;;12.30;99.90;;;;;;5056539;28;20055;-68
2022/04/13 03:37:16;;;;;;;25.73;14.85;;;12.30;99.90;;;;;;5074459;28;20043;-68
2022/04/13 03:39:42;;;;;;;23.92;15.77;;;12.30;99.90;;;;;;5055484;28;20048;-68
2022/04/13 03:42:07;;;;;;;28.00;16.27;;;12.30;99.90;;;;;;5056532;28;20029;-68
2022/04/13 03:44:33;;;;;;;24.90;15.23;;;12.20;99.90;;;;;;5056379;28;20115;-68
2022/04/13 03:46:58;;;;;;;29.20;17.08;;;12.30;99.90;;;;;;5056224;28;20029;-68
2022/04/13 03:49:24;;;;;;;25.83;15.68;;;12.50;99.90;;;;;;5055927;28;20052;-68
2022/04/13 03:51:50;;;;;;;27.05;16.35;;;12.10;99.90;;;;;;5056277;28;20536;-68
2022/04/13 03:54:15;;;;;;;25.80;16.70;;;12.20;99.90;;;;;;5073909;28;20044;-68
2022/04/13 03:56:41;;;;;;;27.52;15.70;;;12.30;99.90;;;;;;5056048;28;20062;-68
2022/04/13 03:59:07;;;;;;;26.77;16.80;;;12.20;99.90;;;;;;5038550;28;20512;-66
2022/04/13 04:01:33;;;;;;;26.17;16.05;;;12.10;99.90;;;;;;5074245;28;20040;-68
2022/04/13 04:03:59;;;;;;;23.15;15.13;;;12.10;99.90;;;;;;5074005;28;20116;-68
2022/04/13 04:06:24;;;;;;;27.48;16.25;;;12.10;99.90;;;;;;5073700;28;20456;-67
2022/04/13 04:08:50;;;;;;;26.15;15.68;;;12.10;99.90;;;;;;5073783;28;20083;-68
2022/04/13 04:11:17;;;;;;;24.52;15.77;;;12.20;99.90;;;;;;5055428;28;20513;-68
2022/04/13 04:13:42;;;;;;;29.63;16.77;;;12.20;99.90;;;;;;5073583;28;20051;-68
2022/04/13 04:16:08;;;;;;;29.40;16.50;;;12.10;99.90;;;;;;5073580;28;20040;-68
2022/04/13 04:18:34;;;;;;;27.50;17.05;;;12.10;99.90;;;;;;5055629;28;20043;-68
2022/04/13 04:20:59;;;;;;;25.42;16.48;;;12.10;99.90;;;;;;5054668;28;20040;-68
2022/04/13 04:23:25;;;;;;;24.73;15.43;;;;;;;;;;5073629;28;20080;-68
2022/04/13 04:25:51;;;;;;;26.35;16.58;;;11.90;99.90;;;;;;5073454;28;20056;-68
2022/04/13 04:28:17;;;;;;;27.77;16.52;;;12.10;99.90;;;;;;5055372;28;20092;-68
2022/04/13 04:30:42;;;;;;;24.88;15.50;;;12.00;99.90;;;;;;5054564;28;20048;-68
2022/04/13 04:33:12;;;;;;;25.55;15.07;;;11.90;99.90;;;;;;5054186;28;20456;-68
2022/04/13 04:35:39;;;;;;;29.17;15.60;;;12.00;99.90;;;;;;5073269;28;20068;-68
2022/04/13 04:38:05;;;;;;;27.20;16.35;;;12.10;99.90;;;;;;5038538;28;20123;-68
2022/04/13 04:40:31;;;;;;;27.30;16.67;;;12.00;99.90;;;;;;5072363;28;20052;-68
2022/04/13 04:42:58;;;;;;;26.92;16.17;;;11.90;99.90;;;;;;5055064;28;20040;-68
2022/04/13 04:45:24;;;;;;;27.05;16.27;;;12.00;99.90;;;;;;5055090;28;20469;-68
2022/04/13 04:47:50;;;;;;;20.13;15.18;;;12.00;99.90;;;;;;5038513;28;20068;-68
2022/04/13 04:50:17;;;;;;;31.33;15.90;;;12.00;99.90;;;;;;5054264;28;20056;-68
2022/04/13 04:52:44;;;;;;;27.00;15.07;;;12.00;99.90;;;;;;5072972;28;20550;-68
2022/04/13 04:55:11;;;;;;;24.60;15.07;;;12.00;99.90;;;;;;5055114;28;20048;-68
2022/04/13 04:57:37;;;;;;;27.23;14.48;;;12.00;99.90;;;;;;5054746;28;20049;-68
2022/04/13 05:00:06;;;;;;;33.33;16.30;;;11.90;99.90;;;;;;5054203;28;20040;-68
2022/04/13 05:02:32;;;;;;;25.50;15.02;;;12.00;99.90;;;;;;5072672;28;20032;-68
2022/04/13 05:04:57;;;;;;;27.08;17.50;;;12.00;99.90;;;;;;5054663;28;20510;-69
2022/04/13 05:07:23;;;;;;;27.23;16.98;;;12.20;99.90;;;;;;5072785;28;20040;-68
2022/04/13 05:09:48;;;;;;;31.67;17.42;;;12.20;99.90;;;;;;5053847;28;20044;-68
2022/04/13 05:12:14;;;;;;;27.73;17.27;;;;;;;;;;5054215;28;20033;-68
2022/04/13 05:14:40;;;;;;;26.83;16.92;;;12.20;99.90;;;;;;5056429;28;20575;-68
2022/04/13 05:17:05;;;;;;;30.00;17.73;;;12.30;99.90;;;;;;5064477;28;20119;-67
2022/04/13 05:19:33;;;;;;;31.85;18.58;;;12.10;99.90;;;;;;5079734;28;20516;-69
2022/04/13 05:21:58;;;;;;;24.67;15.73;;;12.10;99.90;;;;;;5062869;28;20366;-68
2022/04/13 05:24:24;;;;;;;30.52;18.77;;;12.20;99.90;;;;;;5063829;28;20043;-68
2022/04/13 05:26:49;;;;;;;26.17;17.30;;;12.20;99.90;;;;;;5068114;28;20312;-69
2022/04/13 05:29:18;;;;;;;30.30;17.08;;;12.10;99.90;;;;;;5090927;28;20040;-69
2022/04/13 05:31:43;;;;;;;26.20;15.73;;;12.30;99.90;;;;;;5095564;28;20043;-70
2022/04/13 05:34:09;;;;;;;32.50;17.05;;;12.30;99.90;;;;;;5094758;28;20050;-70
2022/04/13 05:36:35;;;;;;;30.73;17.73;;;12.40;99.90;;;;;;5092554;28;20406;-70
2022/04/13 05:39:01;;;;;;;27.90;16.95;;;12.30;99.90;;;;;;5070578;28;20039;-68
2022/04/13 05:41:27;;;;;;;28.27;17.15;;;12.30;99.90;;;;;;5053421;28;20052;-69
2022/04/13 05:43:52;;;;;;;30.17;16.95;;;12.40;99.90;;;;;;5069164;28;20035;-69
2022/04/13 05:46:18;;;;;;;30.27;19.45;;;12.30;99.90;;;;;;5070328;28;20616;-70
2022/04/13 05:48:43;;;;;;;43.42;19.75;;;12.40;99.90;;;;;;5088478;28;20077;-69
2022/04/13 05:51:09;;;;;;;32.40;18.15;;;12.30;99.90;;;;;;5087530;28;20040;-67
2022/04/13 05:53:36;;;;;;;30.98;17.67;;;12.50;99.90;;;;;;5053025;28;20122;-70
2022/04/13 05:56:01;;;;;;;28.50;16.90;;;12.50;99.90;;;;;;5087827;28;20040;-69
2022/04/13 05:58:28;;;;;;;30.17;17.35;;;12.50;99.90;;;;;;5069819;28;20066;-69
2022/04/13 06:00:54;;;;;;;26.27;17.67;;;12.60;99.90;;;;;;5044328;28;20041;-69
2022/04/13 06:03:20;;;;;;;28.60;17.48;;;12.50;99.90;;;;;;5038695;28;20458;-69
2022/04/13 06:05:46;;;;;;;31.73;18.73;;;13.00;99.90;;;;;;5022122;28;20033;-70
2022/04/13 06:08:13;;;;;;;28.25;17.92;;;12.50;99.90;;;;;;5069207;28;20090;-69
2022/04/13 06:10:38;;;;;;;32.70;17.80;;;12.60;99.90;;;;;;5060343;28;20162;-69
2022/04/13 06:13:04;;;;;;;31.52;19.25;;;12.60;99.90;;;;;;5051209;28;20120;-70
2022/04/13 06:15:31;;;;;;;36.92;18.13;;;12.60;99.90;;;;;;5058354;28;20043;-70
2022/04/13 06:17:57;;;;;;;29.08;17.42;;;12.70;99.90;;;;;;5057214;28;20032;-69
2022/04/13 06:20:23;;;;;;;30.80;17.58;;;12.60;99.90;;;;;;5060723;28;20180;-69
2022/04/13 06:22:49;;;;;;;30.73;17.67;;;13.10;99.90;;;;;;5059584;28;20049;-70
2022/04/13 06:25:14;;;;;;;29.65;18.02;;;12.80;99.90;;;;;;5038036;28;20087;-70
2022/04/13 06:27:41;;;;;;;34.33;18.48;;;12.70;99.90;;;;;;5044697;28;20521;-69
2022/04/13 06:30:08;;;;;;;30.52;17.60;;;12.80;99.90;;;;;;5039405;28;20040;-71
2022/04/13 06:32:35;;;;;;;25.63;16.52;;;12.80;99.90;;;;;;5042348;28;20414;-69
2022/04/13 06:35:03;;;;;;;28.13;17.75;;;12.70;99.90;;;;;;5039582;28;20523;-69
2022/04/13 06:37:28;;;;;;;29.38;17.40;;;12.90;99.90;;;;;;5053077;28;20041;-70
2022/04/13 06:39:54;;;;;;;28.92;18.38;;;12.90;99.90;;;;;;5053083;28;20059;-67
2022/04/13 06:42:22;;;;;;;26.20;15.95;;;12.80;99.90;;;;;;5023227;28;20101;-69
2022/04/13 06:44:49;;;;;;;28.65;16.25;;;12.80;99.90;;;;;;5065779;28;20141;-70
2022/04/13 06:47:14;;;;;;;29.95;15.48;;;13.00;99.90;;;;;;5027709;28;20097;-68
2022/04/13 06:49:40;;;;;;;27.80;15.70;;;12.90;99.90;;;;;;5044179;28;20044;-69
2022/04/13 06:52:06;;;;;;;25.17;15.48;;;13.90;99.90;;;;;;5058323;28;20039;-69
2022/04/13 06:54:31;;;;;;;27.52;15.43;;;13.20;99.90;;;;;;5069520;28;20101;-68
2022/04/13 06:56:57;;;;;;;22.30;15.25;;;13.20;99.90;;;;;;5077538;28;20119;-69
2022/04/13 06:59:22;;;;;;;30.80;16.27;;;13.30;99.90;;;;;;5053890;28;20120;-69
2022/04/13 07:01:48;;;;;;;27.17;15.07;;;13.30;99.90;;;;;;5066205;28;20127;-69
2022/04/13 07:04:14;;;;;;;23.88;14.55;;;13.40;99.90;;;;;;5070444;28;20036;-69
2022/04/13 07:06:39;;;;;;;25.15;14.60;;;13.50;99.90;;;;;;5085743;22;20041;-77
2022/04/13 07:09:05;;;;;;;27.17;14.45;;;13.40;99.90;;;;;;5021528;28;20048;-76
2022/04/13 07:11:30;;;;;;;23.45;14.25;;;13.10;99.90;;;;;;5043446;28;20082;-77
2022/04/13 07:13:56;;;;;;;27.33;13.25;;;13.30;99.90;;;;;;5038760;28;20506;-77
2022/04/13 07:16:22;;;;;;;23.35;13.50;;;13.40;99.90;;;;;;5023305;28;20040;-77
2022/04/13 07:18:47;;;;;;;31.13;14.10;;;13.60;99.90;;;;;;5040697;28;20041;-77
2022/04/13 07:21:13;;;;;;;25.85;13.93;;;13.50;99.90;;;;;;5045047;28;20088;-77
2022/04/13 07:23:39;;;;;;;24.83;13.38;;;13.50;99.90;;;;;;5059229;28;20036;-77
2022/04/13 07:26:04;;;;;;;30.65;14.60;;;13.50;99.90;;;;;;5042754;28;20049;-76
2022/04/13 07:28:30;;;;;;;23.73;13.35;;;13.70;99.90;;;;;;5057255;28;20096;-77
2022/04/13 07:30:55;;;;;;;23.95;12.48;;;13.60;99.90;;;;;;5021402;28;20132;-77
2022/04/13 07:33:21;;;;;;;23.95;13.55;;;12.10;99.90;;;;;;5020783;28;20044;-77
2022/04/13 07:35:46;;;;;;;26.25;12.52;;;13.80;99.90;;;;;;5038651;28;20049;-76
2022/04/13 07:38:13;;;;;;;21.45;13.68;;;13.70;99.90;;;;;;5038859;28;20043;-77
2022/04/13 07:40:38;;;;;;;21.23;12.38;;;13.80;99.90;;;;;;5051002;28;20072;-77
2022/04/13 07:43:04;;;;;;;22.17;12.30;;;13.70;99.90;;;;;;5042241;28;20126;-76
2022/04/13 07:45:29;;;;;;;19.63;12.88;;;13.90;99.90;;;;;;5059027;28;20032;-77
2022/04/13 07:47:55;;;;;;;27.50;13.90;;;13.70;99.90;;;;;;5042505;28;20562;-76
2022/04/13 07:50:20;;;;;;;20.88;12.52;;;13.90;99.90;;;;;;5041979;28;20059;-77
2022/04/13 07:52:46;;;;;;;21.17;12.25;;;13.90;99.90;;;;;;5044710;28;20044;-77
2022/04/13 07:55:12;;;;;;;24.38;13.10;;;14.30;99.90;;;;;;5017978;28;20096;-77
2022/04/13 07:57:39;;;;;;;19.17;12.20;;;14.40;99.90;;;;;;5056066;28;20137;-77
2022/04/13 08:00:06;;;;;;;21.00;12.57;;;14.30;99.90;;;;;;5051600;28;20041;-76
2022/04/13 08:02:34;;;;;;;22.88;12.77;;;14.50;99.90;;;;;;5042691;28;20713;-77
2022/04/13 08:05:00;;;;;;;21.55;12.63;;;14.40;99.90;;;;;;5060741;28;20079;-76
2022/04/13 08:07:26;;;;;;;21.38;12.27;;;14.40;99.90;;;;;;5059970;28;20040;-76
2022/04/13 08:09:51;;;;;;;22.27;12.55;;;14.40;99.90;;;;;;5056995;28;20126;-76
2022/04/13 08:12:17;;;;;;;20.65;11.98;;;14.70;99.90;;;;;;5039647;28;20037;-76
2022/04/13 08:14:46;;;;;;;22.48;10.98;;;14.90;99.90;;;;;;5031794;28;20410;-77
2022/04/13 08:17:12;;;;;;;19.40;11.55;;;15.00;99.90;;;;;;5019588;28;20056;-76
2022/04/13 08:19:38;;;;;;;24.95;13.00;;;15.00;99.90;;;;;;5052770;28;20041;-76
2022/04/13 08:22:04;;;;;;;20.50;11.43;;;15.00;99.90;;;;;;5035665;28;20044;-77
2022/04/13 08:24:29;;;;;;;20.88;11.82;;;15.00;99.90;;;;;;5053940;28;20037;-76
2022/04/13 08:26:58;;;;;;;30.70;13.55;;;15.10;99.90;;;;;;5019831;28;20506;-76
2022/04/13 08:29:28;;;;;;;22.95;11.80;;;;;;;;;;5069600;28;20041;-76
2022/04/13 08:31:55;;;;;;;23.55;12.50;;;;;;;;;;5069558;28;20040;-76
2022/04/13 08:34:20;;;;;;;22.02;12.32;;;15.00;99.90;;;;;;5053672;28;20036;-76
2022/04/13 08:36:46;;;;;;;22.23;13.07;;;14.70;99.90;;;;;;5054492;28;20093;-76
2022/04/13 08:39:14;;;;;;;20.63;12.82;;;14.60;99.90;;;;;;5058498;28;20044;-76
2022/04/13 08:41:50;;;;;;;23.40;13.27;;;14.70;99.90;;;;;;5056204;28;20402;-77
2022/04/13 08:44:20;;;;;;;19.33;12.48;;;14.60;99.90;;;;;;5058225;28;20098;-76
2022/04/13 08:46:47;;;;;;;24.13;13.63;;;14.90;99.90;;;;;;5059016;28;20090;-77
2022/04/13 08:49:14;;;;;;;23.13;14.40;;;14.90;99.90;;;;;;5075825;28;20036;-77
2022/04/13 08:51:40;;;;;;;20.23;13.57;;;15.10;99.90;;;;;;5072595;28;20035;-77
2022/04/13 08:54:31;;;;;;;22.77;13.38;;;15.00;99.90;;;;;;5049424;28;20444;-76
2022/04/13 08:56:57;;;;;;;21.70;13.18;;;15.50;99.90;;;;;;5052229;28;20112;-77
2022/04/13 09:00:04;;;;;;;25.10;13.43;;;15.50;99.90;;;;;;5035952;28;20494;-76
2022/04/13 09:02:39;;;;;;;19.23;12.82;;;15.60;99.90;;;;;;5018186;28;20135;-76
2022/04/13 09:05:11;;;;;;;23.90;13.10;;;15.80;99.90;;;;;;5034897;28;20041;-77
2022/04/13 09:07:38;;;;;;;21.25;12.43;;;15.80;99.90;;;;;;5035591;28;20099;-77
2022/04/13 09:10:07;;;;;;;22.75;11.85;;;15.60;99.90;;;;;;5018194;28;20045;-76
2022/04/13 09:12:38;;;;;;;18.67;12.70;;;16.10;99.90;;;;;;5019392;28;20037;-77
2022/04/13 09:15:05;;;;;;;19.15;11.05;;;16.10;99.90;;;;;;5035016;28;20032;-77
2022/04/13 09:17:30;;;;;;;15.70;10.35;;;16.10;99.90;;;;;;5035290;28;20084;-75
2022/04/13 09:19:58;;;;;;;19.38;10.43;;;16.00;99.90;;;;;;5033853;28;20077;-76
2022/04/13 09:22:24;;;;;;;14.82;9.63;;;16.20;99.90;;;;;;5052595;28;20112;-76
2022/04/13 09:24:51;;;;;;;14.25;9.73;;;16.20;99.90;;;;;;5052700;28;20506;-77
2022/04/13 09:27:18;;;;;;;18.00;10.75;;;16.00;99.90;;;;;;5031235;28;20480;-77
2022/04/13 09:29:44;;;;;;;16.13;10.13;;;16.50;99.90;;;;;;5032001;28;20159;-76
2022/04/13 09:32:10;;;;;;;20.58;10.80;;;16.40;99.90;;;;;;5031458;28;20125;-77
2022/04/13 09:34:36;;;;;;;18.25;8.18;;;;;;;;;;5032674;28;20484;-77
2022/04/13 09:37:01;;;;;;;20.73;10.43;;;16.50;99.90;;;;;;5031017;28;20129;-77
2022/04/13 09:39:27;;;;;;;18.20;10.23;;;16.70;99.90;;;;;;5014072;28;20122;-77
2022/04/13 09:41:52;;;;;;;18.33;10.07;;;16.90;99.90;;;;;;5031293;28;20123;-77
2022/04/13 09:44:18;;;;;;;16.10;8.65;;;16.80;99.90;;;;;;5032679;28;20179;-76
2022/04/13 09:46:45;;;;;;;23.92;9.40;;;16.80;99.90;;;;;;5034039;28;20324;-77
2022/04/13 09:49:12;;;;;;;16.92;9.05;;;16.90;99.90;;;;;;5033994;28;20325;-77
2022/04/13 09:51:39;;;;;;;20.75;9.07;;;17.20;99.90;;;;;;5032365;28;20037;-77
2022/04/13 09:54:09;;;;;;;13.98;7.97;;;17.20;99.90;;;;;;5031420;28;20049;-77
2022/04/13 09:56:48;;;;;;;16.58;7.03;;;17.30;99.90;;;;;;5044522;28;20495;-78
2022/04/13 09:59:25;;;;;;;13.95;7.80;;;17.10;99.90;;;;;;5030345;28;20041;-77
2022/04/13 10:01:51;;;;;;;21.30;8.73;;;17.20;99.90;;;;;;5030892;28;20041;-77
2022/04/13 10:04:29;;;;;;;14.88;7.30;;;17.10;99.90;;;;;;5031208;28;20095;-77
2022/04/13 10:07:12;;;;;;;13.60;6.75;;;16.90;99.90;;;;;;5033916;28;20037;-77
2022/04/13 10:09:37;;;;;;;11.50;6.72;;;16.90;99.90;;;;;;5036496;28;20051;-77
2022/04/13 10:12:04;;;;;;;14.85;7.43;;;16.90;99.90;;;;;;5035290;28;20116;-77
2022/04/13 10:14:30;;;;;;;15.45;7.00;;;17.10;99.90;;;;;;5015206;28;20052;-76
2022/04/13 10:17:09;;;;;;;14.00;6.72;;;17.20;99.90;;;;;;5030652;28;20046;-76
2022/04/13 10:19:35;;;;;;;18.80;7.75;;;17.30;99.90;;;;;;5030041;28;20120;-77
2022/04/13 10:22:01;;;;;;;13.10;7.00;;;17.50;99.90;;;;;;5031067;28;20083;-76
2022/04/13 10:24:29;;;;;;;18.02;7.22;;;17.40;99.90;;;;;;5035794;28;20042;-76
2022/04/13 10:27:06;;;;;;;17.63;7.60;;;17.30;99.90;;;;;;5017042;28;20083;-77
2022/04/13 10:29:39;;;;;;;16.95;8.98;;;17.30;99.90;;;;;;5051343;28;20404;-77
2022/04/13 10:32:08;;;;;;;14.68;6.90;;;17.10;99.90;;;;;;5033965;28;20076;-77
2022/04/13 10:34:37;;;;;;;18.65;7.50;;;17.00;99.90;;;;;;5021638;28;20037;-77
2022/04/13 10:37:04;;;;;;;19.15;8.48;;;17.00;99.90;;;;;;5056455;28;20033;-78
2022/04/13 10:39:30;;;;;;;14.75;7.47;;;17.00;99.90;;;;;;5036304;28;20498;-77
2022/04/13 10:41:57;;;;;;;17.50;7.07;;;17.10;99.90;;;;;;5021165;28;20029;-79
2022/04/13 10:44:30;;;;;;;13.60;7.32;;;17.20;99.90;;;;;;5056582;28;20051;-77
2022/04/13 10:47:00;;;;;;;12.80;7.47;;;17.20;99.90;;;;;;5037443;28;20516;-80
2022/04/13 10:49:31;;;;;;;17.23;7.78;;;17.30;99.90;;;;;;5037659;28;20037;-78
2022/04/13 10:52:02;;;;;;;18.20;7.07;;;17.40;99.90;;;;;;5055525;28;20041;-77
2022/04/13 10:54:33;;;;;;;18.20;6.72;;;17.30;99.90;;;;;;5038326;28;20095;-77
2022/04/13 10:56:59;;;;;;;14.32;7.15;;;17.20;99.90;;;;;;5061960;28;20100;-77
2022/04/13 10:59:47;;;;;;;12.20;6.38;;;16.90;99.90;;;;;;5038455;28;20079;-78
2022/04/13 11:02:28;;;;;;;12.25;6.53;;;17.00;99.90;;;;;;5030094;28;20120;-78
2022/04/13 11:04:56;;;;;;;15.63;6.32;;;16.90;99.90;;;;;;5049453;28;20045;-77
2022/04/13 11:07:24;;;;;;;13.05;5.90;;;16.90;99.90;;;;;;5035020;28;20052;-79
2022/04/13 11:09:54;;;;;;;11.60;6.00;;;16.80;99.90;;;;;;5050857;28;20120;-78
2022/04/13 11:12:23;;;;;;;17.20;7.35;;;16.70;99.90;;;;;;5033946;28;20055;-79
2022/04/13 11:14:58;;;;;;;16.55;7.70;;;16.50;99.90;;;;;;5050277;28;20040;-78
2022/04/13 11:17:28;;;;;;;11.95;7.28;;;16.60;99.90;;;;;;5052650;28;20116;-80
2022/04/13 11:20:23;;;;;;;17.25;7.85;;;16.50;99.90;;;;;;5017717;28;20621;-81
2022/04/13 11:23:09;;;;;;;15.50;7.68;;;16.40;99.90;;;;;;5015367;28;20106;-77
2022/04/13 11:25:51;;;;;;;17.15;7.57;;;16.30;99.90;;;;;;5053786;28;20029;-79
2022/04/13 11:28:31;;;;;;;18.73;6.63;;;16.30;99.90;;;;;;5036444;28;20037;-80
2022/04/13 11:31:07;;;;;;;18.52;6.88;;;16.40;99.90;;;;;;5036157;28;20039;-78
2022/04/13 11:33:52;;;;;;;14.35;6.97;;;16.30;99.90;;;;;;5055667;28;20051;-80
2022/04/13 11:36:20;;;;;;;10.77;5.70;;;16.40;99.90;;;;;;5036701;28;20044;-80
2022/04/13 11:38:51;;;;;;;15.15;5.65;;;16.10;99.90;;;;;;5055237;28;20041;-80
2022/04/13 11:41:18;;;;;;;19.15;6.45;;;16.30;99.90;;;;;;5036131;28;20093;-80
2022/04/13 11:43:44;;;;;;;16.48;5.15;;;16.30;99.90;;;;;;5058692;28;20384;-80
2022/04/13 11:46:36;;;;;;;18.10;5.28;;;16.00;99.90;;;;;;5058451;28;20074;-79
2022/04/13 11:49:02;;;;;;;14.43;5.10;;;16.10;99.90;;;;;;5036526;28;20087;-77
2022/04/13 11:51:32;;;;;;;14.70;5.13;;;;;;;;;;5040435;28;20037;-79
2022/04/13 11:54:11;;;;;;;12.95;5.63;;;15.80;99.90;;;;;;5048843;28;20052;-80
2022/04/13 11:56:47;;;;;;;15.43;6.47;;;16.00;99.90;;;;;;5068784;28;20040;-80
2022/04/13 11:59:16;;;;;;;15.30;6.03;;;16.00;99.90;;;;;;5061862;28;20067;-79
2022/04/13 12:01:53;;;;;;;18.50;6.00;;;16.10;99.90;;;;;;5073206;28;20065;-78
2022/04/13 12:04:22;;;;;;;13.57;6.05;;;16.00;99.90;;;;;;5050806;28;20500;-79
2022/04/13 12:06:49;;;;;;;15.50;7.90;;;15.70;99.90;;;;;;5063210;28;20111;-79
2022/04/13 12:09:16;;;;;;;19.40;7.43;;;15.70;99.90;;;;;;5053947;28;20160;-80
2022/04/13 12:11:45;;;;;;;19.23;9.15;;;15.60;99.90;;;;;;5048866;28;20120;-79
2022/04/13 12:14:12;;;;;;;18.33;8.60;;;15.60;99.90;;;;;;5064721;28;20039;-79
2022/04/13 12:16:38;;;;;;;22.38;8.70;;;15.60;99.90;;;;;;5063220;28;20045;-79
2022/04/13 12:19:10;;;;;;;18.25;8.93;;;15.50;99.90;;;;;;5069733;28;20040;-79
2022/04/13 12:21:37;;;;;;;19.27;9.40;;;15.70;99.90;;;;;;5043592;28;20041;-80
2022/04/13 12:24:05;;;;;;;18.27;8.57;;;15.80;99.90;;;;;;5053553;28;20032;-79
2022/04/13 12:26:34;;;;;;;13.95;7.95;;;16.00;99.90;;;;;;5060869;28;20290;-79
2022/04/13 12:29:01;;;;;;;19.75;9.13;;;15.90;99.90;;;;;;5047004;28;20029;-78
2022/04/13 12:31:27;;;;;;;18.30;9.32;;;16.00;99.90;;;;;;5043379;28;20067;-79
2022/04/13 12:34:00;;;;;;;18.17;9.32;;;16.00;99.90;;;;;;5062796;28;20041;-80